Bromley, Alabama
Current Conditions -  °F | °C
As of 12:53 PM on Friday 28 Nov 2014 (Local Time) from KBFM Reporting Station
Clear Clear  
Wind Chill: 55°   Ceiling: Unl
Heat Index: 55°   Visibility: 10mi
Dew Point: 29°   Wind: 6mph
Humidity: 37%   Direction: 80°E
Pressure: 30.37"   Gusts: NA
Location:  30.8772°N, 87.7146°W
Report Text: KBFM 281853Z AUTO 08005KT 10SM CLR 13/M02 A3037 RMK AO2 SLP283 T01281017
Loading
Personal Weather Stations






























Interactive Weather Map New forecast layout! Learn more

10-Day Weather Forecast

Advertisements
Track Severe Weather on mobile